SAWG Airport Information

Runway Information
Runway 7 Length 11644 ft width 148 ft
Elevation 61 ft Threshold 243 ft Heading 86
Runway 25 Length 11644 ft Width 148 ft
Elevation 51 ft Threshold 0 ft Heading 266
Airport Frequencies
Type APP Name APP/TWR Frequency 119.1 MHZ
Type ATIS Name ATIS Frequency 116.7 MHZ
Type RDO Name RDO Frequency 122.1 MHZ
Type TCA Name CON Frequency 124.7 MHZ
Airport Navaids
Type NDB Name Rio Gallegos Frequency 255 KHZ
Type VOR-DME Name Rio Gallegos Frequency 116700 KHZ
Type NDB Name Rio Gallegos Frequency 330 KHZ
Airport Weather Information & NOTAM
ADDS - METARS form results

(0120 UTC 26 February 2018)
 
METAR text: SAWG 260100Z 36009KT 9999 SCT035 SCT100 14/07 Q1008
Conditions at: SAWG (RIO GALLEGOS ARP, AR) observed 0100 UTC 26 February 2018
Temperature: 14.0°C (57°F)
Dewpoint: 7.0°C (45°F) [RH = 63%]
Pressure (altimeter): 29.76 inches Hg (1008.0 mb)
Winds: from the N (360 degrees) at 10 MPH (9 knots; 4.7 m/s)
Visibility: 6 or more miles (10+ km)
Ceiling: at least 12,000 feet AGL
Clouds: scattered clouds at 3500 feet AGL
scattered clouds at 10000 feet AGL
Weather: no significant weather observed at this time